Ride Results

Ararat Pony Club (10-08-2013)
Ride distance: 80.0 km

Outcomes - Ararat Pony Club (10-08-2013)
Division No. of Entries Retired / DNE Completed Withdrawn Ineligible V/O Percentage Completed
HW 7 - 3 2 - 2 42.86%
MW 21 - 16 2 - 3 76.19%
LW 4 - 4 - - - 100.00%
JN 4 - 4 - - - 100.00%
Totals 36 - 27 4 - 5 75.00%
Results - Ararat Pony Club (10-08-2013)
No. Rider Horse Place Time Leg Speeds Total
Km/Hr
H/R bpm
Heavyweight
197 Dennis Moore Boss 1 (BC) 4:59:00 18.8, 13.9 16.05 32, 45, 46 (Avg:45)
58 Dianne Tobin Chimera 2 7:22:00 10.8, 10.8 10.86 34, 43, 51 (Avg:47)
255 Julie Lofts Ethereal Park Shadow Dancer 3 7:45:00 11.0, 9.7 10.32 38, 45, 51 (Avg:48)
754 Steven Noble Ruby Park Stella Withdrawn L2 0:00:00 - - 37, 40 (Avg:40)
76 Russell Robinson Clovelly Park Shazeem Lame L2 0:00:00 12.7, 10.1 - 34, 40, 56 (Avg:48)
82 Jarrod Robinson La Bomba Lame L2 0:00:00 12.7, 10.1 - 47, 47, 48 (Avg:47)
231 Tim Wall Musical Gully Samba Withdrawn L2 0:00:00 - - 30, 50, 44 (Avg:47)
Middleweight
351 Steve Blackhurst Weerina Arabian Princess 1 (BC) 4:22:00 18.8, 17.7 18.32 32, 44, 46 (Avg:45)
238 Kerri Kingston Mytkyina 2 5:10:00 17.0, 14.2 15.48 28, 42, 38 (Avg:40)
42 Hans Peuker Marybank Celia 2 5:10:00 17.0, 14.2 15.48 34, 44, 50 (Avg:47)
149 Bob Masters Sharwood Sinai 4 6:04:00 14.2, 12.3 13.19 30, 40, 40 (Avg:40)
195 Nikita Verspaandonk Summit Park Jasmine 4 6:04:00 13.1, 13.2 13.19 28, 44, 44 (Avg:44)
160 Jo-Anne Francis Castlebar First Light 6 6:12:00 13.0, 12.7 12.90 40, 44, 44 (Avg:44)
175 Dianne Leehane Shah 7 6:16:00 13.1, 12.3 12.77 32, 44, 42 (Avg:43)
131 Simon Thomas Morundah Just Sharii 8 6:57:00 11.9, 11.0 11.51 32, 44, 60 (Avg:52)
89 Sheryl Herbert Krishlah Maleeka 9 6:58:00 12.5, 10.5 11.48 44, 45, 58 (Avg:51)
219 Caroline Noble Top Fancy Trianna 9 6:58:00 12.3, 10.7 11.48 30, 42, 48 (Avg:45)
759 Marieke Featonby Fairview Ethereal Dream 11 7:10:00 11.9, 10.4 11.16 34, 38, 44 (Avg:41)
308 Melissa Cawthan Golden Crest Harquinn 12 7:22:00 11.9, 9.9 10.86 32, 43, 48 (Avg:45)
898 Tanya Beacham Creswick Magdaleenah 13 7:45:00 11.0, 9.7 10.32 36, 40, 44 (Avg:42)
77 Trish Reeves Musical Gully Carousel 13 7:45:00 11.0, 9.7 10.32 40, 40, 50 (Avg:45)
8 Jane McLaughlin Tonki Dee Boo Tess 15 7:48:00 11.0, 9.5 10.26 41, 40, 40 (Avg:40)
6 Julie Woods Ennerdale Omaha 16 8:56:00 9.9, 8.1 8.96 32, 44, 54 (Avg:49)
220 Danny Ellerton Arabec Eskandah Lame L2 0:00:00 13.0, 11.1 - 32, 40, 52 (Avg:46)
41 Jenny Moncur Mullungdung Promise Withdrawn L2 0:00:00 - - 36, 44, 40 (Avg:42)
758 Jessica Remfry Music Maker Lame L2 0:00:00 2.0, 14.6 - 32, 46, 42 (Avg:44)
67 John Osboldstone Shakira Withdrawn L1 0:00:00 - - 44, 52 (Avg:52)
13 Linda Tanian Castlebar Lima Lame L1 0:00:00 25.2 - 33, 28 (Avg:28)
Lightweight
91 Kim Noble Bacchante Spartacus 1 (BC) 4:59:00 15.6, 16.4 16.05 34, 44, 45 (Avg:44)
63 Pamela Cox Castlebar Temeraire 2 6:12:00 13.0, 12.7 12.90 34, 41, 41 (Avg:41)
151 Kasey Thomas Rocky Point Pale Lazulite 3 6:57:00 11.9, 11.0 11.51 38, 42, 58 (Avg:50)
22 Sarah McLaughlin Shaiesha 4 7:48:00 11.0, 9.5 10.26 30, 45, 46 (Avg:45)
Junior
747 Ella Leehane Tarara Malone 1 (BC) 6:16:00 13.1, 12.3 12.77 32, 39, 48 (Avg:43)
746 Kendall Noble Ken U Spot the Difference 2 6:58:00 12.3, 10.7 11.48 28, 42, 57 (Avg:49)
748 Jena Crowe Summit Park Shenay 3 7:22:00 10.8, 10.8 10.86 42, 38, 39 (Avg:38)
154 Tegan Gillingham Passion Park Simba 3 7:22:00 10.8, 10.8 10.86 38, 48, 56 (Avg:52)